Time;durP1;ratioP1;P1;durP2;ratioP2;P2;SDS_P1;SDS_P2;PMS_P1;PMS_P2;Temp;Humidity;BMP_temperature;BMP_pressure;BME280_temperature;BME280_humidity;BME280_pressure;Samples;Min_cycle;Max_cycle;Signal;HPM_P1;HPM_P2
2021/12/10 00:00:40;;;;;;;61.80;19.27;;;;;;;0.45;100.00;99728.88;4993776;28;20527;-72
2021/12/10 00:03:10;;;;;;;52.90;18.65;;;;;;;0.46;100.00;99717.50;4993151;28;20041;-73
2021/12/10 00:05:41;;;;;;;66.40;20.08;;;;;;;0.46;100.00;99718.34;4993513;28;20036;-72
2021/12/10 00:08:08;;;;;;;51.75;18.73;;;;;;;0.50;100.00;99713.75;4993023;28;20109;-74
2021/12/10 00:10:37;;;;;;;61.75;18.92;;;;;;;0.49;100.00;99705.06;4992770;28;20065;-72
2021/12/10 00:13:05;;;;;;;62.38;19.77;;;;;;;0.53;100.00;99703.88;4992966;28;20035;-73
2021/12/10 00:15:32;;;;;;;50.17;19.45;;;;;;;0.55;100.00;99703.78;4993591;28;20038;-74
2021/12/10 00:18:00;;;;;;;51.30;19.48;;;;;;;0.63;100.00;99696.28;4992708;28;20065;-73
2021/12/10 00:20:31;;;;;;;43.70;19.20;;;;;;;0.65;100.00;99685.69;4993319;28;20030;-73
2021/12/10 00:23:00;;;;;;;47.70;19.17;;;;;;;0.65;100.00;99689.13;4991702;28;20367;-74
2021/12/10 00:25:38;;;;;;;49.80;17.65;;;;;;;0.65;100.00;99683.06;4993361;28;20038;-73
2021/12/10 00:28:15;;;;;;;44.92;18.30;;;;;;;0.63;100.00;99677.13;4992758;28;20085;-73
2021/12/10 00:30:57;;;;;;;43.53;18.08;;;;;;;0.67;100.00;99658.47;4993109;28;20046;-73
2021/12/10 00:33:25;;;;;;;34.90;16.30;;;;;;;0.70;100.00;99649.53;4993296;28;20030;-73
2021/12/10 00:35:53;;;;;;;44.00;17.25;;;;;;;0.69;100.00;99642.66;4993210;28;20474;-73
2021/12/10 00:38:19;;;;;;;36.83;17.92;;;;;;;0.73;100.00;99644.09;4993588;28;20471;-73
2021/12/10 00:40:44;;;;;;;36.13;16.50;;;;;;;0.77;100.00;99637.72;4991898;28;20034;-73
2021/12/10 00:43:10;;;;;;;41.72;16.70;;;;;;;0.78;100.00;99636.78;4992507;28;20048;-73
2021/12/10 00:45:36;;;;;;;39.38;16.90;;;;;;;0.82;100.00;99622.53;4993274;28;20037;-72
2021/12/10 00:48:02;;;;;;;41.47;18.90;;;;;;;0.85;100.00;99613.59;4992678;28;20117;-73
2021/12/10 00:50:42;;;;;;;34.25;17.13;;;;;;;0.87;100.00;99602.09;4992859;28;20045;-72
2021/12/10 00:53:08;;;;;;;43.85;18.83;;;;;;;0.88;100.00;99600.28;4992383;28;20031;-74
2021/12/10 00:55:33;;;;;;;44.28;18.63;;;;;;;0.90;100.00;99603.66;4992833;28;20053;-73
2021/12/10 00:58:00;;;;;;;39.28;17.65;;;;;;;0.90;100.00;99598.44;4992109;28;20030;-74
2021/12/10 01:00:31;;;;;;;47.70;17.52;;;;;;;0.91;100.00;99594.88;4992920;28;20031;-73
2021/12/10 01:02:57;;;;;;;41.60;18.80;;;;;;;0.87;100.00;99583.75;4992571;28;20117;-73
2021/12/10 01:05:23;;;;;;;38.45;19.30;;;;;;;0.86;100.00;99587.31;4992664;28;20149;-72
2021/12/10 01:07:49;;;;;;;46.80;20.20;;;;;;;0.82;100.00;99583.25;4992677;28;20038;-72
2021/12/10 01:10:22;;;;;;;46.85;20.40;;;;;;;0.79;100.00;99580.84;4991966;28;20057;-72
2021/12/10 01:12:51;;;;;;;40.25;19.48;;;;;;;0.79;100.00;99577.38;4992858;28;20033;-72
2021/12/10 01:23:50;;;;;;;40.50;18.80;;;;;;;0.63;100.00;99544.44;5031544;28;20493;-72
2021/12/10 01:26:37;;;;;;;33.58;18.20;;;;;;;0.59;100.00;99542.13;5031268;28;20446;-72
2021/12/10 01:29:02;;;;;;;38.42;17.63;;;;;;;0.54;100.00;99534.59;5013504;28;20025;-73
2021/12/10 01:31:28;;;;;;;39.05;17.35;;;;;;;0.52;100.00;99539.94;5031787;28;20099;-72
2021/12/10 01:33:54;;;;;;;33.20;16.83;;;;;;;0.56;100.00;99540.56;5031567;28;20041;-73
2021/12/10 01:36:21;;;;;;;35.42;16.33;;;;;;;0.57;100.00;99534.38;5029849;28;20232;-73
2021/12/10 01:38:51;;;;;;;32.00;16.02;;;;;;;0.56;100.00;99526.63;5031668;28;20029;-73
2021/12/10 01:41:19;;;;;;;33.47;16.80;;;;;;;0.59;100.00;99527.25;5030901;28;20083;-73
2021/12/10 01:43:50;;;;;;;37.05;15.38;;;;;;;0.62;100.00;99515.75;5031515;28;20393;-74
2021/12/10 01:46:26;;;;;;;34.65;15.15;;;;;;;0.65;100.00;99516.34;5031538;28;20037;-73
2021/12/10 01:48:56;;;;;;;33.40;14.95;;;;;;;0.64;100.00;99514.69;5031632;28;20477;-73
2021/12/10 01:51:26;;;;;;;28.92;14.15;;;;;;;0.62;100.00;99507.88;5031063;28;20021;-73
2021/12/10 01:53:56;;;;;;;29.42;14.85;;;;;;;0.61;100.00;99507.06;5014188;28;20442;-72
2021/12/10 01:56:25;;;;;;;32.17;14.75;;;;;;;0.62;100.00;99505.25;5031236;28;20579;-73
2021/12/10 01:58:52;;;;;;;30.73;15.88;;;;;;;0.64;100.00;99487.66;5031569;28;20485;-73
2021/12/10 02:01:31;;;;;;;28.90;14.82;;;;;;;0.63;100.00;99480.75;5030951;28;20025;-73
2021/12/10 02:04:00;;;;;;;33.88;15.35;;;;;;;0.60;100.00;99480.97;5031422;28;20401;-73
2021/12/10 02:06:25;;;;;;;31.80;14.75;;;;;;;0.60;100.00;99475.72;5030880;28;20030;-73
2021/12/10 02:08:52;;;;;;;32.78;14.55;;;;;;;0.61;100.00;99473.03;5031429;28;20040;-73
2021/12/10 02:11:18;;;;;;;25.83;13.65;;;;;;;0.61;100.00;99470.41;5030959;28;20087;-73
2021/12/10 02:13:44;;;;;;;34.22;13.18;;;;;;;0.60;100.00;99460.88;5032707;28;20458;-77
2021/12/10 02:16:11;;;;;;;29.45;12.75;;;;;;;0.62;100.00;99453.72;5034860;28;20049;-76
2021/12/10 02:18:36;;;;;;;26.65;12.77;;;;;;;0.62;100.00;99450.28;5028481;28;20033;-76
2021/12/10 02:21:02;;;;;;;31.42;13.77;;;;;;;0.58;100.00;99452.28;5029642;28;20434;-76
2021/12/10 02:23:38;;;;;;;27.23;12.75;;;;;;;0.59;100.00;99447.91;5029839;28;20373;-76
2021/12/10 02:26:10;;;;;;;23.45;12.18;;;;;;;0.57;100.00;99455.84;5029997;28;20025;-77
2021/12/10 02:28:37;;;;;;;31.20;12.38;;;;;;;0.60;100.00;99445.16;5029515;28;20033;-76
2021/12/10 02:31:04;;;;;;;28.95;11.23;;;;;;;0.62;100.00;99437.19;5029866;28;20072;-76
2021/12/10 02:33:30;;;;;;;23.05;10.85;;;;;;;0.66;100.00;99434.25;5029742;28;20041;-76
2021/12/10 02:35:55;;;;;;;25.42;10.95;;;;;;;0.72;100.00;99421.66;5015235;28;20030;-77
2021/12/10 02:38:22;;;;;;;22.70;11.02;;;;;;;0.77;100.00;99414.31;5033226;28;20060;-77
2021/12/10 02:40:50;;;;;;;26.25;10.05;;;;;;;0.82;100.00;99415.66;5014958;28;20072;-77
2021/12/10 02:43:19;;;;;;;19.25;9.70;;;;;;;0.85;100.00;99407.56;5033277;28;20068;-76
2021/12/10 02:45:49;;;;;;;21.92;9.70;;;;;;;0.89;100.00;99410.78;5033266;28;20022;-77
2021/12/10 02:48:15;;;;;;;11.40;8.00;;;;;;;0.97;100.00;99405.00;5032473;28;20616;-76
2021/12/10 02:50:40;;;;;;;21.08;8.40;;;;;;;0.98;100.00;99396.19;5033265;28;20034;-77
2021/12/10 02:53:08;;;;;;;25.02;7.70;;;;;;;1.01;100.00;99390.72;5031561;28;20109;-76
2021/12/10 02:55:35;;;;;;;20.17;7.63;;;;;;;1.06;100.00;99380.75;5014922;28;20032;-76
2021/12/10 02:58:05;;;;;;;16.70;7.53;;;;;;;1.11;100.00;99378.63;5015230;28;20030;-76
2021/12/10 03:00:35;;;;;;;19.70;8.07;;;;;;;1.18;100.00;99371.13;5032847;28;20032;-77
2021/12/10 03:03:01;;;;;;;16.17;6.50;;;;;;;1.21;100.00;99376.16;5033123;28;20283;-77
2021/12/10 03:05:27;;;;;;;18.55;6.68;;;;;;;1.23;100.00;99363.78;5032835;28;20473;-77
2021/12/10 03:07:53;;;;;;;14.95;6.53;;;;;;;1.26;100.00;99363.53;5032515;28;20029;-77
2021/12/10 03:10:25;;;;;;;17.20;6.38;;;;;;;1.29;100.00;99367.72;5033057;28;20116;-78
2021/12/10 03:12:51;;;;;;;16.48;5.53;;;;;;;1.33;100.00;99358.66;5015233;28;20030;-76
2021/12/10 03:15:21;;;;;;;20.75;6.10;;;;;;;1.34;100.00;99350.66;5032049;28;20033;-77
2021/12/10 03:17:46;;;;;;;14.27;6.07;;;;;;;1.36;100.00;99346.16;5033332;28;20029;-77
2021/12/10 03:20:14;;;;;;;12.48;6.35;;;;;;;1.36;100.00;99337.47;5014758;28;20032;-79
2021/12/10 03:22:41;;;;;;;12.95;6.07;;;;;;;1.38;100.00;99332.94;5032761;28;20033;-77
2021/12/10 03:25:09;;;;;;;14.38;5.88;;;;;;;1.40;100.00;99331.88;5032465;28;20117;-78
2021/12/10 03:27:35;;;;;;;17.38;5.40;;;;;;;1.40;100.00;99321.41;5032457;28;20063;-77
2021/12/10 03:30:01;;;;;;;15.18;5.53;;;;;;;1.42;100.00;99323.91;5031421;28;20025;-77
2021/12/10 03:32:30;;;;;;;17.55;5.85;;;;;;;1.44;100.00;99318.53;5032806;28;20139;-76
2021/12/10 03:35:00;;;;;;;13.95;6.18;;;;;;;1.43;100.00;99317.69;5032716;28;20116;-77
2021/12/10 03:37:27;;;;;;;16.95;6.22;;;;;;;1.45;100.00;99322.81;5032930;28;20029;-77
2021/12/10 03:39:53;;;;;;;17.80;6.68;;;;;;;1.45;100.00;99315.81;5032398;28;20093;-76
2021/12/10 03:42:21;;;;;;;16.65;6.90;;;;;;;1.44;100.00;99313.31;5032801;28;20152;-78
2021/12/10 03:44:47;;;;;;;19.10;6.65;;;;;;;1.44;100.00;99302.81;5031293;28;20036;-76
2021/12/10 03:47:12;;;;;;;15.13;6.63;;;;;;;1.43;100.00;99301.97;5031576;28;20030;-77
2021/12/10 03:49:39;;;;;;;15.45;8.05;;;;;;;1.41;100.00;99296.00;5032279;28;20404;-76
2021/12/10 03:52:07;;;;;;;13.57;6.28;;;;;;;1.40;100.00;99289.94;5032188;28;20033;-76
2021/12/10 03:54:36;;;;;;;16.33;7.05;;;;;;;1.38;100.00;99288.38;5031901;28;20473;-76
2021/12/10 03:57:02;;;;;;;17.23;7.60;;;;;;;1.35;100.00;99278.97;5032156;28;20488;-77
2021/12/10 03:59:30;;;;;;;19.35;7.80;;;;;;;1.34;100.00;99284.31;5031658;28;20033;-76
2021/12/10 04:01:57;;;;;;;16.60;7.15;;;;;;;1.33;100.00;99280.03;5032766;28;20033;-76
2021/12/10 04:04:38;;;;;;;14.90;7.68;;;;;;;1.30;100.00;99275.88;5032253;28;20033;-77
2021/12/10 04:07:09;;;;;;;19.48;7.35;;;;;;;1.28;100.00;99267.28;5030748;28;20029;-77
2021/12/10 04:09:35;;;;;;;18.38;8.30;;;;;;;1.26;100.00;99263.97;5031569;28;20049;-76
2021/12/10 04:12:01;;;;;;;23.10;7.88;;;;;;;1.26;100.00;99258.72;5013522;28;20113;-77
2021/12/10 04:14:26;;;;;;;17.08;7.47;;;;;;;1.28;100.00;99253.34;5013740;28;20091;-76
2021/12/10 04:16:56;;;;;;;22.38;7.70;;;;;;;1.25;100.00;99246.56;5013668;28;20324;-77
2021/12/10 04:19:27;;;;;;;24.08;7.40;;;;;;;1.24;100.00;99250.16;5031617;28;20040;-82
2021/12/10 04:21:56;;;;;;;23.50;7.75;;;;;;;1.25;100.00;99236.06;5032102;28;20032;-76
2021/12/10 04:24:24;;;;;;;20.83;7.68;;;;;;;1.24;100.00;99239.66;5031151;28;20048;-83
2021/12/10 04:26:51;;;;;;;22.67;7.70;;;;;;;1.24;100.00;99239.66;5030151;28;20079;-77
2021/12/10 04:29:20;;;;;;;27.83;8.18;;;;;;;1.21;100.00;99227.63;5013582;28;20033;-77
2021/12/10 04:31:47;;;;;;;19.55;7.40;;;;;;;1.22;100.00;99220.59;5031098;28;20365;-77
2021/12/10 04:34:12;;;;;;;18.80;7.57;;;;;;;1.19;100.00;99212.97;5030790;28;20044;-75
2021/12/10 04:36:38;;;;;;;23.75;7.80;;;;;;;1.19;100.00;99208.56;4980074;28;20037;-76
2021/12/10 04:39:04;;;;;;;31.23;7.80;;;;;;;1.17;100.00;99210.47;5013680;28;20029;-78
2021/12/10 04:41:30;;;;;;;21.08;7.10;;;;;;;1.17;100.00;99209.66;5031343;28;20112;-79
2021/12/10 04:43:55;;;;;;;18.05;7.43;;;;;;;1.17;100.00;99207.84;5030652;28;20120;-78
2021/12/10 04:46:21;;;;;;;20.40;6.93;;;;;;;1.16;100.00;99207.97;5031560;28;20481;-77
2021/12/10 04:48:55;;;;;;;15.75;6.63;;;;;;;1.16;100.00;99202.72;5031089;28;20034;-78
2021/12/10 04:51:23;;;;;;;23.63;7.10;;;;;;;1.16;100.00;99202.72;5030839;28;20459;-78
2021/12/10 04:53:50;;;;;;;15.35;6.80;;;;;;;1.14;100.00;99187.13;5030773;28;20497;-78
2021/12/10 04:56:15;;;;;;;19.35;7.28;;;;;;;1.17;100.00;99183.44;5030820;28;20083;-78
2021/12/10 04:58:41;;;;;;;21.23;6.72;;;;;;;1.16;100.00;99187.00;5029558;28;20466;-78
2021/12/10 05:01:06;;;;;;;22.42;7.40;;;;;;;1.15;100.00;99180.94;5030957;28;20374;-77
2021/12/10 05:03:32;;;;;;;15.60;6.40;;;;;;;1.14;100.00;99170.59;5030394;28;20349;-79
2021/12/10 05:06:02;;;;;;;13.35;5.80;;;;;;;1.16;100.00;99171.28;5030964;28;20171;-77
2021/12/10 05:08:29;;;;;;;14.43;5.78;;;;;;;1.15;100.00;99162.63;4998167;28;20053;-83
2021/12/10 05:10:55;;;;;;;14.48;5.40;;;;;;;1.15;100.00;99167.00;5030507;28;20120;-78
2021/12/10 05:13:21;;;;;;;10.35;4.93;;;;;;;1.15;100.00;99165.22;5012928;28;20419;-78
2021/12/10 05:15:54;;;;;;;15.65;5.53;;;;;;;1.16;100.00;99169.50;5012357;28;20144;-78
2021/12/10 05:18:20;;;;;;;10.48;5.35;;;;;;;1.16;100.00;99169.50;5030741;28;20025;-76
2021/12/10 05:20:48;;;;;;;16.05;4.78;;;;;;;1.16;100.00;99160.81;5030583;28;20437;-77
2021/12/10 05:23:15;;;;;;;16.90;5.28;;;;;;;1.16;100.00;99164.25;5030606;28;20045;-77
2021/12/10 05:25:42;;;;;;;13.60;5.40;;;;;;;1.17;100.00;99158.06;5013146;28;20394;-78
2021/12/10 05:28:07;;;;;;;17.10;5.03;;;;;;;1.19;100.00;99153.53;5012724;28;20029;-78
2021/12/10 05:30:34;;;;;;;16.85;5.18;;;;;;;1.21;100.00;99153.44;5012111;28;20040;-79
2021/12/10 05:33:01;;;;;;;12.82;4.13;;;;;;;1.20;100.00;99149.97;5029249;28;20030;-76
2021/12/10 05:35:28;;;;;;;10.02;4.95;;;;;;;1.22;100.00;99152.47;5030377;28;20472;-76
2021/12/10 05:37:54;;;;;;;14.85;4.22;;;;;;;1.21;100.00;99151.66;5030375;28;20076;-77
2021/12/10 05:40:20;;;;;;;18.80;4.57;;;;;;;1.23;100.00;99159.38;5030766;28;20033;-78
2021/12/10 05:42:46;;;;;;;10.32;4.45;;;;;;;1.27;100.00;99147.72;5030106;28;20048;-78
2021/12/10 05:45:13;;;;;;;13.73;4.28;;;;;;;1.26;100.00;99156.53;5012364;28;20405;-78
2021/12/10 05:47:39;;;;;;;10.52;4.35;;;;;;;1.26;100.00;99148.66;5030333;28;20045;-77
2021/12/10 05:50:07;;;;;;;28.35;4.80;;;;;;;1.27;100.00;99145.09;5030155;28;20033;-78
2021/12/10 05:52:33;;;;;;;11.80;3.65;;;;;;;1.28;100.00;99148.53;5030379;28;20025;-84
2021/12/10 05:54:58;;;;;;;14.80;4.38;;;;;;;1.28;100.00;99144.13;5012115;28;20030;-77
2021/12/10 05:57:24;;;;;;;12.73;4.07;;;;;;;1.29;100.00;99148.41;5029970;28;20116;-77
2021/12/10 05:59:49;;;;;;;15.38;4.22;;;;;;;1.30;100.00;99154.47;5030048;28;20461;-77
2021/12/10 06:02:15;;;;;;;15.52;4.40;;;;;;;1.30;100.00;99155.34;5012135;28;20106;-77
2021/12/10 06:04:42;;;;;;;10.23;4.18;;;;;;;1.30;100.00;99160.56;5030128;28;20539;-77
2021/12/10 06:07:07;;;;;;;9.95;3.95;;;;;;;1.31;100.00;99150.91;5030330;28;20112;-77
2021/12/10 06:09:33;;;;;;;15.50;4.10;;;;;;;1.31;100.00;99162.22;5030325;28;20112;-84
2021/12/10 06:12:00;;;;;;;14.05;4.22;;;;;;;1.31;100.00;99158.78;5034327;28;20425;-83
2021/12/10 06:14:26;;;;;;;10.63;3.90;;;;;;;1.30;100.00;99157.97;5034017;28;20037;-82
2021/12/10 06:16:54;;;;;;;11.80;4.10;;;;;;;1.28;100.00;99162.47;5033282;28;20045;-79
2021/12/10 06:19:21;;;;;;;15.90;4.47;;;;;;;1.27;100.00;99158.19;5034372;28;20021;-80
2021/12/10 06:21:47;;;;;;;16.38;3.85;;;;;;;1.26;100.00;99158.31;5033574;28;20174;-79
2021/12/10 06:24:13;;;;;;;11.13;3.85;;;;;;;1.26;100.00;99164.38;5033626;28;20206;-81
2021/12/10 06:26:38;;;;;;;18.60;4.45;;;;;;;1.23;100.00;99157.59;5015970;28;20491;-84
2021/12/10 06:29:05;;;;;;;16.58;3.58;;;;;;;1.24;100.00;99155.81;5033497;28;20469;-79
2021/12/10 06:31:30;;;;;;;12.18;3.65;;;;;;;1.24;100.00;99158.44;5033852;28;20394;-80
2021/12/10 06:33:56;;;;;;;12.75;4.38;;;;;;;1.25;100.00;99156.66;5033309;28;20036;-81
2021/12/10 06:36:22;;;;;;;15.25;3.97;;;;;;;1.25;100.00;99159.25;5032015;28;20038;-82
2021/12/10 06:38:48;;;;;;;10.48;3.60;;;;;;;1.25;100.00;99161.88;5033580;28;20040;-81
2021/12/10 06:41:14;;;;;;;12.10;4.30;;;;;;;1.25;100.00;99164.50;5033118;28;20037;-81
2021/12/10 06:43:40;;;;;;;11.98;4.63;;;;;;;1.24;100.00;99161.06;5033533;28;20317;-84
2021/12/10 06:46:06;;;;;;;9.95;4.05;;;;;;;1.23;100.00;99162.81;5033686;28;20029;-81
2021/12/10 06:48:33;;;;;;;14.10;4.60;;;;;;;1.23;100.00;99173.31;4998810;28;20031;-81
2021/12/10 06:51:03;;;;;;;14.95;4.30;;;;;;;1.23;100.00;99170.69;5033003;28;20403;-80
2021/12/10 06:53:30;;;;;;;14.20;3.97;;;;;;;1.21;100.00;99170.00;5032854;28;20403;-81
2021/12/10 06:55:58;;;;;;;8.48;3.38;;;;;;;1.20;100.00;99172.72;5031554;28;20041;-81
2021/12/10 06:58:24;;;;;;;15.93;3.97;;;;;;;1.17;100.00;99168.56;5033499;28;20025;-82
2021/12/10 07:00:54;;;;;;;13.65;3.55;;;;;;;1.19;100.00;99177.13;5032989;28;20124;-80
2021/12/10 07:03:23;;;;;;;13.40;3.87;;;;;;;1.19;100.00;99182.34;5031555;28;20025;-79
2021/12/10 07:05:51;;;;;;;10.40;3.55;;;;;;;1.17;100.00;99173.78;5032894;28;20057;-79
2021/12/10 07:08:17;;;;;;;14.68;4.28;;;;;;;1.18;100.00;99169.38;5032758;28;20473;-78
2021/12/10 07:10:42;;;;;;;15.35;3.85;;;;;;;1.17;100.00;99168.56;5032966;28;20052;-83
2021/12/10 07:13:08;;;;;;;11.32;3.47;;;;;;;1.18;100.00;99175.47;5032468;28;20467;-82
2021/12/10 07:15:37;;;;;;;13.75;4.10;;;;;;;1.18;100.00;99180.72;5030846;28;20152;-81
2021/12/10 07:18:02;;;;;;;17.70;4.95;;;;;;;1.18;100.00;99182.47;5033172;28;20037;-80
2021/12/10 07:20:28;;;;;;;12.70;4.40;;;;;;;1.18;100.00;99180.72;5032677;28;20033;-80
2021/12/10 07:22:54;;;;;;;17.17;4.80;;;;;;;1.18;100.00;99183.34;5014341;28;20073;-81
2021/12/10 07:25:20;;;;;;;13.32;4.50;;;;;;;1.18;100.00;99192.97;5014530;28;20112;-82
2021/12/10 07:27:47;;;;;;;16.80;4.45;;;;;;;1.18;100.00;99195.56;5014431;28;20037;-83
2021/12/10 07:30:13;;;;;;;13.55;4.80;;;;;;;1.17;100.00;99188.69;5030905;28;20385;-80
2021/12/10 07:32:38;;;;;;;9.65;4.20;;;;;;;1.17;100.00;99194.75;5032493;28;20064;-77
2021/12/10 07:35:08;;;;;;;13.20;4.35;;;;;;;1.16;100.00;99194.88;5032301;28;20105;-83
2021/12/10 07:37:34;;;;;;;19.30;4.75;;;;;;;1.16;100.00;99187.84;5032503;28;20021;-82
2021/12/10 07:40:00;;;;;;;22.65;5.03;;;;;;;1.16;100.00;99189.63;5031906;28;20048;-82
2021/12/10 07:42:26;;;;;;;15.48;4.40;;;;;;;1.16;100.00;99203.56;5031544;28;20043;-77
2021/12/10 07:44:54;;;;;;;16.48;5.38;;;;;;;1.16;100.00;99194.88;5032022;28;20116;-80
2021/12/10 07:47:20;;;;;;;13.35;4.70;;;;;;;1.17;100.00;99202.63;5014262;28;20033;-77
2021/12/10 07:49:47;;;;;;;13.70;5.07;;;;;;;1.16;100.00;99200.94;5032003;28;20068;-83
2021/12/10 07:52:22;;;;;;;13.25;5.60;;;;;;;1.14;100.00;99199.41;5030323;28;20033;-76
2021/12/10 07:54:48;;;;;;;11.98;5.35;;;;;;;1.12;100.00;99201.28;5031485;28;20081;-81
2021/12/10 07:57:16;;;;;;;16.48;4.85;;;;;;;1.11;100.00;99210.13;5032073;28;20051;-78
2021/12/10 07:59:42;;;;;;;19.65;5.20;;;;;;;1.11;100.00;99208.34;5031851;28;20034;-82
2021/12/10 08:02:08;;;;;;;14.30;5.45;;;;;;;1.10;100.00;99211.91;5030228;28;20025;-79
2021/12/10 08:04:35;;;;;;;8.68;5.50;;;;;;;1.10;100.00;99206.66;5031486;28;20101;-81
2021/12/10 08:07:00;;;;;;;8.85;5.57;;;;;;;1.09;100.00;99209.41;5014050;28;20037;-78
2021/12/10 08:09:25;;;;;;;13.48;5.90;;;;;;;1.06;100.00;99207.88;5031402;28;20338;-79
2021/12/10 08:11:52;;;;;;;11.93;5.90;;;;;;;1.01;100.00;99207.38;5013252;28;20128;-80
2021/12/10 08:14:17;;;;;;;13.35;6.00;;;;;;;0.99;100.00;99207.50;5031152;28;20029;-78
2021/12/10 08:16:43;;;;;;;14.20;6.18;;;;;;;0.97;100.00;99214.63;5030862;28;20072;-78
2021/12/10 08:19:10;;;;;;;14.70;6.45;;;;;;;0.97;100.00;99219.03;5030850;28;20136;-76
2021/12/10 08:21:36;;;;;;;13.60;6.35;;;;;;;0.98;100.00;99218.09;5031198;28;20045;-79
2021/12/10 08:24:01;;;;;;;16.05;6.82;;;;;;;1.00;100.00;99222.25;5030944;28;20033;-77
2021/12/10 08:26:27;;;;;;;18.80;7.22;;;;;;;1.00;100.00;99222.25;5030518;28;20044;-77
2021/12/10 08:28:52;;;;;;;16.98;6.78;;;;;;;1.02;100.00;99222.97;5031274;28;20038;-85
2021/12/10 08:31:19;;;;;;;14.55;6.53;;;;;;;1.02;100.00;99217.72;5030166;28;20040;-80
2021/12/10 08:33:48;;;;;;;16.42;7.13;;;;;;;1.06;100.00;99223.59;5030728;28;20133;-78
2021/12/10 08:36:15;;;;;;;15.10;6.70;;;;;;;1.08;100.00;99231.31;5032296;28;20026;-80
2021/12/10 08:38:41;;;;;;;16.85;6.53;;;;;;;1.11;100.00;99228.47;5014666;28;20144;-82
2021/12/10 08:41:10;;;;;;;13.70;6.50;;;;;;;1.12;100.00;99237.97;5032882;28;20113;-80
2021/12/10 08:43:36;;;;;;;15.48;6.63;;;;;;;1.12;100.00;99236.22;5031290;28;20093;-80
2021/12/10 08:46:04;;;;;;;15.77;6.53;;;;;;;1.15;100.00;99237.72;5030232;28;20113;-79
2021/12/10 08:48:31;;;;;;;19.58;7.28;;;;;;;1.15;100.00;99235.13;5030669;28;20128;-80
2021/12/10 08:51:00;;;;;;;15.25;6.32;;;;;;;1.16;100.00;99234.16;5030551;28;20094;-85
2021/12/10 08:53:25;;;;;;;17.58;6.88;;;;;;;1.17;100.00;99235.84;5030126;28;20029;-76
2021/12/10 08:55:53;;;;;;;22.08;6.68;;;;;;;1.20;100.00;99233.00;5012267;28;20044;-79
2021/12/10 08:58:19;;;;;;;15.77;7.45;;;;;;;1.21;100.00;99240.72;5012347;28;20033;-77
2021/12/10 09:00:59;;;;;;;17.73;7.05;;;;;;;1.24;100.00;99237.06;5030370;28;20121;-76
2021/12/10 09:03:26;;;;;;;20.08;7.68;;;;;;;1.26;100.00;99242.19;5012378;28;20025;-78
2021/12/10 09:05:52;;;;;;;18.67;7.20;;;;;;;1.28;100.00;99242.88;5030080;28;20102;-77
2021/12/10 09:08:17;;;;;;;25.25;8.10;;;;;;;1.29;100.00;99245.38;5030532;28;20097;-77
2021/12/10 09:10:45;;;;;;;26.27;7.40;;;;;;;1.32;100.00;99253.00;5030323;28;20053;-77
2021/12/10 09:13:16;;;;;;;18.48;6.95;;;;;;;1.34;100.00;99258.94;5030008;28;20022;-80
2021/12/10 09:15:45;;;;;;;22.05;7.30;;;;;;;1.37;100.00;99261.34;5030076;28;20173;-76
2021/12/10 09:18:11;;;;;;;18.40;6.70;;;;;;;1.38;100.00;99264.81;5029924;28;20464;-74
2021/12/10 09:20:42;;;;;;;23.80;7.32;;;;;;;1.38;100.00;99276.09;5030219;28;20112;-74
2021/12/10 09:23:10;;;;;;;15.57;6.93;;;;;;;1.37;100.00;99276.22;5011952;28;20040;-75
2021/12/10 09:25:37;;;;;;;18.83;7.43;;;;;;;1.37;100.00;99281.47;5030055;28;20037;-75
2021/12/10 09:28:03;;;;;;;19.55;6.90;;;;;;;1.38;100.00;99283.97;5030392;28;20033;-74
2021/12/10 09:30:31;;;;;;;18.83;7.10;;;;;;;1.38;100.00;99285.78;5012442;28;20461;-76
2021/12/10 09:32:57;;;;;;;16.73;8.60;;;;;;;1.35;100.00;99288.63;5030324;28;20112;-75
2021/12/10 09:35:25;;;;;;;17.05;6.55;;;;;;;1.35;100.00;99288.63;5030395;28;20039;-78
2021/12/10 09:37:52;;;;;;;15.20;6.25;;;;;;;1.34;100.00;99293.00;5030231;28;20065;-74
2021/12/10 09:40:24;;;;;;;13.13;6.53;;;;;;;1.35;100.00;99299.13;5012234;28;20377;-75
2021/12/10 09:42:51;;;;;;;24.67;8.27;;;;;;;1.34;100.00;99295.63;5030179;28;20120;-77
2021/12/10 09:45:19;;;;;;;14.27;6.20;;;;;;;1.35;100.00;99305.19;5033283;28;20045;-78
2021/12/10 09:47:45;;;;;;;16.42;6.88;;;;;;;1.35;100.00;99305.19;5034226;28;20030;-75
2021/12/10 09:50:14;;;;;;;15.93;7.65;;;;;;;1.37;100.00;99297.19;5034158;28;20033;-78
2021/12/10 09:52:40;;;;;;;13.23;7.10;;;;;;;1.39;100.00;99300.56;5034283;28;20045;-75
2021/12/10 09:55:15;;;;;;;22.10;8.00;;;;;;;1.43;100.00;99309.00;5034195;28;20029;-78
2021/12/10 09:57:42;;;;;;;20.15;8.40;;;;;;;1.43;100.00;99304.59;5034268;28;20104;-78
2021/12/10 10:00:16;;;;;;;19.52;8.18;;;;;;;1.45;100.00;99317.56;5033606;28;20037;-77
2021/12/10 10:02:42;;;;;;;17.67;8.27;;;;;;;1.45;100.00;99307.94;5015793;28;20033;-76
2021/12/10 10:05:09;;;;;;;26.17;8.25;;;;;;;1.45;100.00;99309.72;5032179;28;20124;-75
2021/12/10 10:07:37;;;;;;;15.73;8.18;;;;;;;1.44;100.00;99310.69;5033991;28;20033;-77
2021/12/10 10:10:13;;;;;;;19.30;7.90;;;;;;;1.46;100.00;99308.75;5033722;28;20065;-75
2021/12/10 10:12:42;;;;;;;17.85;8.27;;;;;;;1.47;100.00;99313.88;5033956;28;20350;-74
2021/12/10 10:15:12;;;;;;;22.85;8.05;;;;;;;1.49;100.00;99314.59;5033605;28;20091;-76
2021/12/10 10:17:38;;;;;;;19.35;8.02;;;;;;;1.51;100.00;99314.50;5034199;28;20131;-74
2021/12/10 10:20:07;;;;;;;18.25;8.20;;;;;;;1.51;100.00;99323.19;5033928;28;20117;-74
2021/12/10 10:22:33;;;;;;;22.00;8.50;;;;;;;1.50;100.00;99331.19;5016586;28;20103;-74
2021/12/10 10:24:59;;;;;;;25.00;8.38;;;;;;;1.49;100.00;99322.44;5033165;28;20490;-75
2021/12/10 10:27:29;;;;;;;20.48;8.50;;;;;;;1.50;100.00;99326.75;5033122;28;20447;-74
2021/12/10 10:30:04;;;;;;;28.40;9.65;;;;;;;1.54;100.00;99322.13;5015471;28;20358;-75
2021/12/10 10:32:32;;;;;;;19.60;8.55;;;;;;;1.56;100.00;99320.22;5033453;28;20044;-73
2021/12/10 10:35:04;;;;;;;32.75;9.25;;;;;;;1.57;100.00;99317.47;5033128;28;20044;-74
2021/12/10 10:37:31;;;;;;;21.50;8.88;;;;;;;1.59;100.00;99319.97;5033006;28;20129;-74
2021/12/10 10:39:57;;;;;;;16.67;8.82;;;;;;;1.59;100.00;99326.03;5015588;28;20033;-79
2021/12/10 10:42:25;;;;;;;27.73;9.57;;;;;;;1.57;100.00;99321.88;5033449;28;20330;-73
2021/12/10 10:44:52;;;;;;;18.83;9.57;;;;;;;1.55;100.00;99326.41;5033137;28;20033;-73
2021/12/10 10:47:22;;;;;;;21.33;9.07;;;;;;;1.57;100.00;99335.00;5033147;28;20033;-74
2021/12/10 10:49:54;;;;;;;15.98;8.15;;;;;;;1.58;100.00;99331.41;5033102;28;20060;-76
2021/12/10 10:52:33;;;;;;;19.63;7.95;;;;;;;1.56;100.00;99334.13;5032857;28;20061;-75
2021/12/10 10:55:21;;;;;;;13.60;7.20;;;;;;;1.56;100.00;99336.75;5014555;28;20030;-76
2021/12/10 10:57:58;;;;;;;19.40;8.25;;;;;;;1.58;100.00;99334.03;5018704;28;20405;-76
2021/12/10 11:00:33;;;;;;;23.70;8.18;;;;;;;1.57;100.00;99335.81;5014944;28;20458;-74
2021/12/10 11:03:08;;;;;;;19.65;7.93;;;;;;;1.59;100.00;99340.94;5032511;28;20036;-72
2021/12/10 11:05:34;;;;;;;18.02;8.30;;;;;;;1.62;100.00;99342.50;5032860;28;20029;-76
2021/12/10 11:08:03;;;;;;;16.85;8.75;;;;;;;1.63;100.00;99342.38;5033244;28;20037;-72
2021/12/10 11:10:39;;;;;;;18.38;9.65;;;;;;;1.67;100.00;99343.81;5032736;28;20108;-75
2021/12/10 11:13:21;;;;;;;18.33;8.93;;;;;;;1.72;100.00;99343.47;5015309;28;20053;-77
2021/12/10 11:15:58;;;;;;;15.80;8.75;;;;;;;1.72;100.00;99348.72;5032031;28;20466;-72
2021/12/10 11:18:24;;;;;;;21.38;8.75;;;;;;;1.72;100.00;99349.53;5032997;28;20175;-74
2021/12/10 11:20:50;;;;;;;22.27;10.93;;;;;;;1.75;100.00;99354.53;5032798;28;20076;-73
2021/12/10 11:23:16;;;;;;;23.15;10.52;;;;;;;1.78;100.00;99356.09;5032568;28;20363;-84
2021/12/10 11:25:50;;;;;;;26.45;10.63;;;;;;;1.81;100.00;99361.09;5032315;28;20129;-77
2021/12/10 11:28:20;;;;;;;22.58;9.65;;;;;;;1.81;100.00;99358.47;5032268;28;20499;-80
2021/12/10 11:30:50;;;;;;;28.92;11.43;;;;;;;1.84;100.00;99360.03;5032262;28;20381;-77
2021/12/10 11:33:19;;;;;;;23.40;11.68;;;;;;;1.86;100.00;99353.69;5032523;28;20473;-81
2021/12/10 11:35:58;;;;;;;24.08;10.52;;;;;;;1.94;100.00;99358.34;5032412;28;20155;-77